createdAt,value
2023-08-01T00:01:56.180Z,993.21
2023-08-01T00:04:56.118Z,993.08
2023-08-01T00:07:56.121Z,992.99
2023-08-01T00:10:56.123Z,992.88
2023-08-01T00:13:56.115Z,992.87
2023-08-01T00:16:56.164Z,992.79
2023-08-01T00:19:56.190Z,992.76
2023-08-01T00:22:56.118Z,992.6
2023-08-01T00:25:56.120Z,992.53
2023-08-01T00:28:56.117Z,992.42
2023-08-01T00:31:56.129Z,992.34
2023-08-01T00:34:56.132Z,992.24
2023-08-01T00:37:56.108Z,992.15
2023-08-01T00:40:56.106Z,992.05
2023-08-01T00:43:56.108Z,991.99
2023-08-01T00:46:56.106Z,991.95
2023-08-01T00:49:56.111Z,991.84
2023-08-01T00:52:56.118Z,991.81
2023-08-01T00:55:56.115Z,991.72
2023-08-01T00:58:56.100Z,991.71
2023-08-01T01:01:56.095Z,991.73
2023-08-01T01:04:56.098Z,991.71
2023-08-01T01:07:56.099Z,991.69
2023-08-01T01:10:56.095Z,991.7
2023-08-01T01:13:56.101Z,991.6
2023-08-01T01:16:56.101Z,991.45
2023-08-01T01:19:56.100Z,991.44
2023-08-01T01:22:56.097Z,991.43
2023-08-01T01:25:56.092Z,991.32
2023-08-01T01:28:56.093Z,991.27
2023-08-01T01:31:56.095Z,991.18
2023-08-01T01:34:56.090Z,991.15
2023-08-01T01:37:56.085Z,991.12
2023-08-01T01:40:56.084Z,991.15
2023-08-01T01:43:56.095Z,991.12
2023-08-01T01:46:56.157Z,991.03
2023-08-01T01:49:56.080Z,990.95
2023-08-01T01:52:56.076Z,990.9
2023-08-01T01:55:56.082Z,990.89
2023-08-01T01:58:56.081Z,990.68
2023-08-01T02:01:56.078Z,990.61
2023-08-01T02:04:56.106Z,990.64
2023-08-01T02:07:56.076Z,990.72
2023-08-01T02:10:56.076Z,990.72
2023-08-01T02:13:56.078Z,990.67
2023-08-01T02:16:56.102Z,990.64
2023-08-01T02:19:56.069Z,990.51
2023-08-01T02:22:56.070Z,990.33
2023-08-01T02:25:56.068Z,990.33
2023-08-01T02:28:56.069Z,990.29
2023-08-01T02:31:56.096Z,990.18
2023-08-01T02:34:56.080Z,990.05
2023-08-01T02:37:56.071Z,989.93
2023-08-01T02:40:56.066Z,989.92
2023-08-01T02:43:56.064Z,989.99
2023-08-01T02:46:56.065Z,989.94
2023-08-01T02:49:56.078Z,989.94
2023-08-01T02:52:56.073Z,989.9
2023-08-01T02:55:56.060Z,989.92
2023-08-01T02:58:56.064Z,989.92
2023-08-01T03:01:56.084Z,989.78
2023-08-01T03:04:56.056Z,989.66
2023-08-01T03:07:56.073Z,989.63
2023-08-01T03:10:56.061Z,989.64
2023-08-01T03:13:56.064Z,989.66
2023-08-01T03:16:56.059Z,989.64
2023-08-01T03:19:56.057Z,989.65
2023-08-01T03:22:56.053Z,989.66
2023-08-01T03:25:56.065Z,989.73
2023-08-01T03:28:56.053Z,989.7
2023-08-01T03:31:56.065Z,989.68
2023-08-01T03:34:56.052Z,989.65
2023-08-01T03:37:56.063Z,989.69
2023-08-01T03:40:56.062Z,989.68
2023-08-01T03:43:56.054Z,989.83
2023-08-01T03:46:56.045Z,989.68
2023-08-01T03:49:56.041Z,989.58
2023-08-01T03:52:56.121Z,989.51
2023-08-01T03:55:56.057Z,989.51
2023-08-01T03:58:56.043Z,989.48
2023-08-01T04:01:56.096Z,989.43
2023-08-01T04:04:56.051Z,989.31
2023-08-01T04:07:56.043Z,989.3
2023-08-01T04:10:56.036Z,989.33
2023-08-01T04:13:56.058Z,989.33
2023-08-01T04:16:56.046Z,989.33
2023-08-01T04:19:56.039Z,989.33
2023-08-01T04:22:56.032Z,989.26
2023-08-01T04:25:56.025Z,989.3
2023-08-01T04:28:56.031Z,989.33
2023-08-01T04:31:56.029Z,989.38
2023-08-01T04:34:56.037Z,989.52
2023-08-01T04:37:56.018Z,989.3
2023-08-01T04:40:56.023Z,989.28
2023-08-01T04:43:56.044Z,989.33
2023-08-01T04:46:56.023Z,989.41
2023-08-01T04:49:56.038Z,989.47
2023-08-01T04:52:56.025Z,989.45
2023-08-01T04:55:56.042Z,989.41
2023-08-01T04:58:56.037Z,989.26
2023-08-01T05:01:56.021Z,989.28
2023-08-01T05:04:56.018Z,989.31
2023-08-01T05:07:56.017Z,989.08
2023-08-01T05:10:56.026Z,989.05
2023-08-01T05:13:56.010Z,988.99
2023-08-01T05:16:56.033Z,988.8
2023-08-01T05:19:56.003Z,988.88
2023-08-01T05:22:56.291Z,989.02
2023-08-01T05:25:56.006Z,988.96
2023-08-01T05:28:56.000Z,989.07
2023-08-01T05:31:56.002Z,989.08
2023-08-01T05:34:56.000Z,989.01
2023-08-01T05:37:55.998Z,988.98
2023-08-01T05:40:55.999Z,988.85
2023-08-01T05:43:55.992Z,988.73
2023-08-01T05:46:55.993Z,988.81
2023-08-01T05:49:55.988Z,988.96
2023-08-01T05:52:55.986Z,989.01
2023-08-01T05:55:55.988Z,988.7
2023-08-01T05:58:55.992Z,988.5
2023-08-01T06:01:55.998Z,988.47
2023-08-01T06:04:55.983Z,988.55
2023-08-01T06:07:55.986Z,988.69
2023-08-01T06:10:55.984Z,988.93
2023-08-01T06:13:55.990Z,988.99
2023-08-01T06:16:56.060Z,988.95
2023-08-01T06:19:55.986Z,988.93
2023-08-01T06:22:55.980Z,988.98
2023-08-01T06:25:55.991Z,989.05
2023-08-01T06:28:55.982Z,989.25
2023-08-01T06:31:56.023Z,989.44
2023-08-01T06:34:55.969Z,989.68
2023-08-01T06:37:55.975Z,989.8
2023-08-01T06:40:55.977Z,989.8
2023-08-01T06:43:55.967Z,989.93
2023-08-01T06:46:55.968Z,990.03
2023-08-01T06:49:55.976Z,990.14
2023-08-01T06:52:55.961Z,990.11
2023-08-01T06:55:55.991Z,990.17
2023-08-01T06:58:55.961Z,990.25
2023-08-01T07:01:55.995Z,990.22
2023-08-01T07:04:55.965Z,990.27
2023-08-01T07:07:55.954Z,990.32
2023-08-01T07:10:56.003Z,990.34
2023-08-01T07:13:55.949Z,990.35
2023-08-01T07:16:55.962Z,990.31
2023-08-01T07:19:55.949Z,990.31
2023-08-01T07:22:55.947Z,990.34
2023-08-01T07:25:55.947Z,990.37
2023-08-01T07:28:55.949Z,990.38
2023-08-01T07:31:55.997Z,990.43
2023-08-01T07:34:55.940Z,990.43
2023-08-01T07:37:56.923Z,990.39
2023-08-01T07:40:56.414Z,990.37
2023-08-01T07:43:56.410Z,990.45
2023-08-01T07:46:56.414Z,990.45
2023-08-01T07:49:56.403Z,990.44
2023-08-01T07:52:56.409Z,990.5
2023-08-01T07:55:56.410Z,990.55
2023-08-01T07:58:56.415Z,990.62
2023-08-01T08:01:56.408Z,990.67
2023-08-01T08:04:56.408Z,990.68
2023-08-01T08:07:56.400Z,990.73
2023-08-01T08:10:56.413Z,990.73
2023-08-01T08:13:56.391Z,990.74
2023-08-01T08:16:56.520Z,990.77
2023-08-01T08:19:56.396Z,990.85
2023-08-01T08:22:56.392Z,990.85
2023-08-01T08:25:56.395Z,990.78
2023-08-01T08:28:56.390Z,990.8
2023-08-01T08:31:56.393Z,990.79
2023-08-01T08:34:56.390Z,990.87
2023-08-01T08:37:56.393Z,990.95
2023-08-01T08:40:56.393Z,991.03
2023-08-01T08:43:56.402Z,991.08
2023-08-01T08:46:56.409Z,991.04
2023-08-01T08:49:56.400Z,991.07
2023-08-01T08:52:56.400Z,991.11
2023-08-01T08:55:56.404Z,991.12
2023-08-01T08:58:56.408Z,991.1
2023-08-01T09:01:56.391Z,991.09
2023-08-01T09:04:56.404Z,991.1
2023-08-01T09:07:56.401Z,991.09
2023-08-01T09:10:56.392Z,991.07
2023-08-01T09:13:56.384Z,991.07
2023-08-01T09:16:56.432Z,991.11
2023-08-01T09:19:56.384Z,991.08
2023-08-01T09:22:56.389Z,991.04
2023-08-01T09:25:57.828Z,990.99
2023-08-01T09:28:56.384Z,991.02
2023-08-01T09:31:56.379Z,991.04
2023-08-01T09:34:56.380Z,991.04
2023-08-01T09:37:56.384Z,991.09
2023-08-01T09:40:56.379Z,991.03
2023-08-01T09:43:56.378Z,990.98
2023-08-01T09:46:56.380Z,990.97
2023-08-01T09:49:56.393Z,990.94
2023-08-01T09:52:56.385Z,990.93
2023-08-01T09:55:56.378Z,990.98
2023-08-01T09:58:56.376Z,990.98
2023-08-01T10:01:56.495Z,990.94
2023-08-01T10:04:56.382Z,990.93
2023-08-01T10:07:56.378Z,990.98
2023-08-01T10:10:56.397Z,991.06
2023-08-01T10:13:56.377Z,991.02
2023-08-01T10:16:56.370Z,991.03
2023-08-01T10:19:56.375Z,991.1
2023-08-01T10:22:56.374Z,991.09
2023-08-01T10:25:56.371Z,991.16
2023-08-01T10:28:56.374Z,991.26
2023-08-01T10:31:56.517Z,991.22
2023-08-01T10:34:56.374Z,991.22
2023-08-01T10:37:56.375Z,991.23
2023-08-01T10:40:56.373Z,991.18
2023-08-01T10:43:56.375Z,991.17
2023-08-01T10:46:56.370Z,991.19
2023-08-01T10:49:56.373Z,991.24
2023-08-01T10:52:56.371Z,991.22
2023-08-01T10:55:56.367Z,991.22
2023-08-01T10:58:56.364Z,991.21
2023-08-01T11:01:56.396Z,991.34
2023-08-01T11:04:56.366Z,991.32
2023-08-01T11:07:56.366Z,991.39
2023-08-01T11:10:56.360Z,991.49
2023-08-01T11:13:56.360Z,991.45
2023-08-01T11:16:56.363Z,991.45
2023-08-01T11:19:56.363Z,991.45
2023-08-01T11:22:56.362Z,991.54
2023-08-01T11:25:56.365Z,991.61
2023-08-01T11:28:56.362Z,991.58
2023-08-01T11:31:56.380Z,991.53
2023-08-01T11:34:56.355Z,991.57
2023-08-01T11:37:56.356Z,991.61
2023-08-01T11:40:56.356Z,991.64
2023-08-01T11:43:56.348Z,991.71
2023-08-01T11:46:56.343Z,991.67
2023-08-01T11:49:56.349Z,991.68
2023-08-01T11:52:56.356Z,991.69
2023-08-01T11:55:56.339Z,991.66
2023-08-01T11:58:56.342Z,991.68
2023-08-01T12:01:56.352Z,991.76
2023-08-01T12:04:56.371Z,991.79
2023-08-01T12:07:56.350Z,991.83
2023-08-01T12:10:56.355Z,991.85
2023-08-01T12:13:56.348Z,991.91
2023-08-01T12:16:56.351Z,991.94
2023-08-01T12:19:56.348Z,991.94
2023-08-01T12:22:56.357Z,991.88
2023-08-01T12:25:56.359Z,991.83
2023-08-01T12:28:56.348Z,991.77
2023-08-01T12:31:56.343Z,991.78
2023-08-01T12:34:56.342Z,991.89
2023-08-01T12:37:56.345Z,991.91
2023-08-01T12:40:56.339Z,992.01
2023-08-01T12:43:56.337Z,992.13
2023-08-01T12:46:56.358Z,992.29
2023-08-01T12:49:56.338Z,992.45
2023-08-01T12:52:56.336Z,992.48
2023-08-01T12:55:56.334Z,992.27
2023-08-01T12:58:56.335Z,992.21
2023-08-01T13:01:56.334Z,992.21
2023-08-01T13:04:56.356Z,992.14
2023-08-01T13:07:56.329Z,992.18
2023-08-01T13:10:56.334Z,992.22
2023-08-01T13:13:56.324Z,992.17
2023-08-01T13:16:56.348Z,992.15
2023-08-01T13:19:56.330Z,992.06
2023-08-01T13:22:56.335Z,992.09
2023-08-01T13:25:56.327Z,992.08
2023-08-01T13:28:56.326Z,992.09
2023-08-01T13:31:56.320Z,992.02
2023-08-01T13:34:56.315Z,991.97
2023-08-01T13:37:56.322Z,991.96
2023-08-01T13:40:56.322Z,991.9
2023-08-01T13:43:56.323Z,992.01
2023-08-01T13:46:56.365Z,992.14
2023-08-01T13:49:56.341Z,992.43
2023-08-01T13:52:56.312Z,992.57
2023-08-01T13:55:56.315Z,992.61
2023-08-01T13:58:56.322Z,992.71
2023-08-01T14:01:56.331Z,992.75
2023-08-01T14:04:56.308Z,992.76
2023-08-01T14:07:56.306Z,992.66
2023-08-01T14:10:56.306Z,992.59
2023-08-01T14:13:56.317Z,992.59
2023-08-01T14:16:56.312Z,992.66
2023-08-01T14:19:56.298Z,992.6
2023-08-01T14:22:56.296Z,992.68
2023-08-01T14:25:56.311Z,992.75
2023-08-01T14:28:56.316Z,992.73
2023-08-01T14:31:56.339Z,992.82
2023-08-01T14:34:56.299Z,992.8
2023-08-01T14:37:56.300Z,992.72
2023-08-01T14:41:09.180Z,992.72
2023-08-01T14:43:56.298Z,992.73
2023-08-01T14:46:56.317Z,992.71
2023-08-01T14:49:56.293Z,992.75
2023-08-01T14:52:56.295Z,992.76
2023-08-01T14:55:56.289Z,992.85
2023-08-01T14:58:56.294Z,992.9
2023-08-01T15:01:56.291Z,992.92
2023-08-01T15:04:56.286Z,992.92
2023-08-01T15:07:56.288Z,992.96
2023-08-01T15:10:56.282Z,992.89
2023-08-01T15:13:56.288Z,992.93
2023-08-01T15:16:56.277Z,992.96
2023-08-01T15:19:56.287Z,993.01
2023-08-01T15:22:56.276Z,993.13
2023-08-01T15:25:56.273Z,993.12
2023-08-01T15:28:56.276Z,993.08
2023-08-01T15:31:56.290Z,993.1
2023-08-01T15:34:56.277Z,993.14
2023-08-01T15:37:56.270Z,993.22
2023-08-01T15:40:56.259Z,993.26
2023-08-01T15:43:56.273Z,993.29
2023-08-01T15:46:56.260Z,993.32
2023-08-01T15:49:56.258Z,993.37
2023-08-01T15:52:56.262Z,993.38
2023-08-01T15:55:56.258Z,993.34
2023-08-01T15:58:56.272Z,993.27
2023-08-01T16:01:56.261Z,993.26
2023-08-01T16:04:56.261Z,993.22
2023-08-01T16:07:56.254Z,993.32
2023-08-01T16:10:56.286Z,993.31
2023-08-01T16:13:56.635Z,993.28
2023-08-01T16:16:56.254Z,993.24
2023-08-01T16:19:56.256Z,993.28
2023-08-01T16:22:56.255Z,993.2
2023-08-01T16:25:56.253Z,993.29
2023-08-01T16:28:56.254Z,993.25
2023-08-01T16:31:56.249Z,993.3
2023-08-01T16:34:56.256Z,993.26
2023-08-01T16:37:56.242Z,993.28
2023-08-01T16:40:56.256Z,993.27
2023-08-01T16:43:56.254Z,993.27
2023-08-01T16:46:56.544Z,993.25
2023-08-01T16:49:56.249Z,993.33
2023-08-01T16:52:56.269Z,993.33
2023-08-01T16:55:56.240Z,993.33
2023-08-01T16:58:56.992Z,993.35
2023-08-01T17:01:56.247Z,993.38
2023-08-01T17:04:56.237Z,993.42
2023-08-01T17:07:56.231Z,993.47
2023-08-01T17:10:56.239Z,993.47
2023-08-01T17:13:56.232Z,993.45
2023-08-01T17:16:56.254Z,993.42
2023-08-01T17:19:56.244Z,993.49
2023-08-01T17:22:56.243Z,993.57
2023-08-01T17:25:56.274Z,993.63
2023-08-01T17:28:56.238Z,993.57
2023-08-01T17:31:56.228Z,993.53
2023-08-01T17:34:56.223Z,993.56
2023-08-01T17:37:56.218Z,993.69
2023-08-01T17:40:56.226Z,993.74
2023-08-01T17:43:56.233Z,993.76
2023-08-01T17:46:56.305Z,993.77
2023-08-01T17:49:56.223Z,993.71
2023-08-01T17:52:56.225Z,993.72
2023-08-01T17:55:56.224Z,993.75
2023-08-01T17:58:56.258Z,993.76
2023-08-01T18:01:56.253Z,993.77
2023-08-01T18:04:56.228Z,993.83
2023-08-01T18:07:56.223Z,993.9
2023-08-01T18:10:56.226Z,993.94
2023-08-01T18:13:56.219Z,993.99
2023-08-01T18:16:56.292Z,994.01
2023-08-01T18:19:56.214Z,993.98
2023-08-01T18:22:56.325Z,993.91
2023-08-01T18:25:56.234Z,993.92
2023-08-01T18:28:56.235Z,993.96
2023-08-01T18:31:56.220Z,993.97
2023-08-01T18:34:56.225Z,994.01
2023-08-01T18:37:56.215Z,994.01
2023-08-01T18:40:56.218Z,994.06
2023-08-01T18:43:56.237Z,994.12
2023-08-01T18:46:56.273Z,994.15
2023-08-01T18:49:56.224Z,994.14
2023-08-01T18:52:56.213Z,994.14
2023-08-01T18:55:56.220Z,994.24
2023-08-01T18:58:56.208Z,994.28
2023-08-01T19:01:56.242Z,994.28
2023-08-01T19:04:56.242Z,994.34
2023-08-01T19:07:56.202Z,994.35
2023-08-01T19:10:56.203Z,994.33
2023-08-01T19:13:56.201Z,994.4
2023-08-01T19:16:56.206Z,994.45
2023-08-01T19:19:56.207Z,994.65
2023-08-01T19:22:56.202Z,994.68
2023-08-01T19:25:56.198Z,994.76
2023-08-01T19:28:56.195Z,994.83
2023-08-01T19:31:56.232Z,994.86
2023-08-01T19:34:56.193Z,994.91
2023-08-01T19:37:56.196Z,994.95
2023-08-01T19:40:56.195Z,994.97
2023-08-01T19:43:56.199Z,995.03
2023-08-01T19:46:56.190Z,995.02
2023-08-01T19:49:56.196Z,995.1
2023-08-01T19:52:56.191Z,995.13
2023-08-01T19:55:56.192Z,995.14
2023-08-01T19:58:56.188Z,995.13
2023-08-01T20:01:56.193Z,995.15
2023-08-01T20:04:56.192Z,995.13
2023-08-01T20:07:56.193Z,995.16
2023-08-01T20:10:56.180Z,995.17
2023-08-01T20:13:56.191Z,995.22
2023-08-01T20:16:56.201Z,995.25
2023-08-01T20:19:56.186Z,995.32
2023-08-01T20:22:56.199Z,995.33
2023-08-01T20:25:56.175Z,995.28
2023-08-01T20:28:56.178Z,995.34
2023-08-01T20:31:56.211Z,995.36
2023-08-01T20:34:56.190Z,995.37
2023-08-01T20:37:56.182Z,995.46
2023-08-01T20:40:56.182Z,995.42
2023-08-01T20:43:56.167Z,995.43
2023-08-01T20:46:56.168Z,995.4
2023-08-01T20:49:56.168Z,995.36
2023-08-01T20:52:56.172Z,995.32
2023-08-01T20:55:56.182Z,995.31
2023-08-01T20:58:56.169Z,995.34
2023-08-01T21:01:56.169Z,995.4
2023-08-01T21:04:56.206Z,995.38
2023-08-01T21:07:56.192Z,995.35
2023-08-01T21:10:56.172Z,995.38
2023-08-01T21:13:56.167Z,995.35
2023-08-01T21:16:56.175Z,995.35
2023-08-01T21:19:56.161Z,995.3
2023-08-01T21:22:56.169Z,995.23
2023-08-01T21:25:56.165Z,995.2
2023-08-01T21:28:56.161Z,995.2
2023-08-01T21:31:56.163Z,995.25
2023-08-01T21:34:56.160Z,995.27
2023-08-01T21:37:56.151Z,995.29
2023-08-01T21:40:56.161Z,995.28
2023-08-01T21:43:56.156Z,995.26
2023-08-01T21:46:56.183Z,995.23
2023-08-01T21:49:56.175Z,995.24
2023-08-01T21:52:56.156Z,995.25
2023-08-01T21:55:56.151Z,995.26
2023-08-01T21:58:56.149Z,995.23
2023-08-01T22:01:56.188Z,995.21
2023-08-01T22:04:56.164Z,995.17
2023-08-01T22:07:56.151Z,995.15
2023-08-01T22:10:56.147Z,995.16
2023-08-01T22:13:56.147Z,995.2
2023-08-01T22:16:56.152Z,995.15
2023-08-01T22:19:56.198Z,995.12
2023-08-01T22:22:56.147Z,995.13
2023-08-01T22:25:56.135Z,995.17
2023-08-01T22:28:56.162Z,995.17
2023-08-01T22:31:56.146Z,995.23
2023-08-01T22:34:56.139Z,995.3
2023-08-01T22:37:56.150Z,995.28
2023-08-01T22:40:56.157Z,995.3
2023-08-01T22:43:56.136Z,995.33
2023-08-01T22:46:56.183Z,995.33
2023-08-01T22:50:05.277Z,995.29
2023-08-01T22:52:56.142Z,995.28
2023-08-01T22:55:56.144Z,995.27
2023-08-01T22:58:56.137Z,995.26
2023-08-01T23:01:56.248Z,995.25
2023-08-01T23:04:56.141Z,995.23
2023-08-01T23:07:56.134Z,995.22
2023-08-01T23:10:56.136Z,995.23
2023-08-01T23:13:56.140Z,995.2
2023-08-01T23:16:56.156Z,995.2
2023-08-01T23:19:56.135Z,995.16
2023-08-01T23:22:56.133Z,995.15
2023-08-01T23:25:56.130Z,995.15
2023-08-01T23:28:56.127Z,995.14
2023-08-01T23:31:56.133Z,995.07
2023-08-01T23:34:56.127Z,995.09
2023-08-01T23:37:56.129Z,995.07
2023-08-01T23:40:56.125Z,995.06
2023-08-01T23:43:56.122Z,995.05
2023-08-01T23:46:56.145Z,994.96
2023-08-01T23:49:56.123Z,994.97
2023-08-01T23:52:56.127Z,994.95
2023-08-01T23:55:56.122Z,994.93
2023-08-01T23:58:56.114Z,994.87
